Strona główna
METAR-TAF:

METAR-TAF

Lotnisko :

Avord, Francja

Szerokość geograficzna: 47-03-12N, Długość geograficzna: 002-37-57E, wysokość: 177 m

Aktualna obserwacja pogody

Raport powstał 22 minut temu, godzina 06:00 UTC
Wiatr 3 kt od południowo-południowy wschód
Temperatura 18°C
Wilgotność 77%
Ciśnienie 1013 hPa
Widzialność 10 km lub więcej
Brak chmur poniżej 1500 m i brak chmur cumulonimbus

METAR: LFOA 200600Z AUTO 16003KT CAVOK 18/14 Q1013

czas: 08:22 (06:22 UTC)

Prognoza

Raport powstał 22 godziny i 22 minut temu, godzina 08:00 UTC
Prognoza ważna od 19 godzina 09 UTC do 20 godzina 09 UTC
Wiatr 8 kt od południowy zachód
Widzialność 10 km lub więcej
Rozproszone chmury na wysokości 1300 ft
Przerywane chmury na wysokości 3500 ft
Stopniowe zmiany
od 19 godzina 09 UTC do 19 godzina 10 UTC
Przerywane chmury na wysokości 4000 ft

TAF: LFOA 190800Z 1909/2009 23008KT 9999 SCT013 BKN035 BECMG 1909/1910 BKN040

Obserwacja i prognoza pogody dla ponad 4000 lotnisk (raport METAR i TAF).

Dostępne stacje oznaczono żółtymi i czerwonymi punktami na mapie.

Najedź kursorem aby zobaczyć nazwę stacji.

Kliknij aby zobaczyć obserwacje i prognozy pogody.

Aby zmienić mapę: kliknij na zielony przycisk z czarnym krzyżykiem, aby powiększyć; na zielony przycisk z myślnikiem, aby pomniejszyć; na zielone strzałki, aby przejść do map sąsiednich.


METAR-TAF: